sensor_id;sensor_type;location;lat;lon;timestamp;P1;durP1;ratioP1;P2;durP2;ratioP2
70014;SDS011;57358;51.094;6.760;2023-04-23T00:01:04;8.18;;;7.50;;
70014;SDS011;57358;51.094;6.760;2023-04-23T00:03:32;9.13;;;8.20;;
70014;SDS011;57358;51.094;6.760;2023-04-23T00:06:01;8.60;;;7.78;;
70014;SDS011;57358;51.094;6.760;2023-04-23T00:08:37;8.70;;;7.85;;
70014;SDS011;57358;51.094;6.760;2023-04-23T00:11:08;8.32;;;7.50;;
70014;SDS011;57358;51.094;6.760;2023-04-23T00:13:35;9.05;;;7.28;;
70014;SDS011;57358;51.094;6.760;2023-04-23T00:16:02;10.02;;;8.55;;
70014;SDS011;57358;51.094;6.760;2023-04-23T00:18:29;9.68;;;8.70;;
70014;SDS011;57358;51.094;6.760;2023-04-23T00:20:56;7.45;;;6.85;;
70014;SDS011;57358;51.094;6.760;2023-04-23T00:23:23;17.42;;;9.48;;
70014;SDS011;57358;51.094;6.760;2023-04-23T00:25:49;10.05;;;7.50;;
70014;SDS011;57358;51.094;6.760;2023-04-23T00:28:16;9.52;;;7.93;;
70014;SDS011;57358;51.094;6.760;2023-04-23T00:30:42;11.80;;;7.22;;
70014;SDS011;57358;51.094;6.760;2023-04-23T00:33:09;11.63;;;9.40;;
70014;SDS011;57358;51.094;6.760;2023-04-23T00:35:35;9.32;;;7.45;;
70014;SDS011;57358;51.094;6.760;2023-04-23T00:38:02;8.60;;;7.65;;
70014;SDS011;57358;51.094;6.760;2023-04-23T00:40:28;9.25;;;8.35;;
70014;SDS011;57358;51.094;6.760;2023-04-23T00:42:54;9.15;;;8.45;;
70014;SDS011;57358;51.094;6.760;2023-04-23T00:45:21;8.65;;;7.70;;
70014;SDS011;57358;51.094;6.760;2023-04-23T00:47:47;9.10;;;8.30;;
70014;SDS011;57358;51.094;6.760;2023-04-23T00:50:14;9.93;;;7.88;;
70014;SDS011;57358;51.094;6.760;2023-04-23T00:52:41;14.60;;;8.00;;
70014;SDS011;57358;51.094;6.760;2023-04-23T00:55:07;11.20;;;8.05;;
70014;SDS011;57358;51.094;6.760;2023-04-23T00:57:37;9.77;;;8.77;;
70014;SDS011;57358;51.094;6.760;2023-04-23T01:00:05;8.35;;;7.50;;
70014;SDS011;57358;51.094;6.760;2023-04-23T01:02:32;8.38;;;7.57;;
70014;SDS011;57358;51.094;6.760;2023-04-23T01:05:02;9.10;;;7.90;;
70014;SDS011;57358;51.094;6.760;2023-04-23T01:07:33;7.95;;;7.13;;
70014;SDS011;57358;51.094;6.760;2023-04-23T01:10:00;8.85;;;7.65;;
70014;SDS011;57358;51.094;6.760;2023-04-23T01:12:28;8.10;;;7.28;;
70014;SDS011;57358;51.094;6.760;2023-04-23T01:14:55;11.25;;;9.00;;
70014;SDS011;57358;51.094;6.760;2023-04-23T01:17:21;9.93;;;8.27;;
70014;SDS011;57358;51.094;6.760;2023-04-23T01:19:48;8.15;;;7.35;;
70014;SDS011;57358;51.094;6.760;2023-04-23T01:22:15;8.00;;;7.20;;
70014;SDS011;57358;51.094;6.760;2023-04-23T01:24:42;8.25;;;7.45;;
70014;SDS011;57358;51.094;6.760;2023-04-23T01:27:09;7.88;;;7.28;;
70014;SDS011;57358;51.094;6.760;2023-04-23T01:29:36;9.13;;;7.53;;
70014;SDS011;57358;51.094;6.760;2023-04-23T01:32:04;11.40;;;8.63;;
70014;SDS011;57358;51.094;6.760;2023-04-23T01:34:30;10.00;;;8.02;;
70014;SDS011;57358;51.094;6.760;2023-04-23T01:36:57;9.00;;;7.40;;
70014;SDS011;57358;51.094;6.760;2023-04-23T01:39:25;10.48;;;8.13;;
70014;SDS011;57358;51.094;6.760;2023-04-23T01:41:51;9.27;;;8.38;;
70014;SDS011;57358;51.094;6.760;2023-04-23T01:44:18;8.65;;;7.75;;
70014;SDS011;57358;51.094;6.760;2023-04-23T01:46:45;9.57;;;8.57;;
70014;SDS011;57358;51.094;6.760;2023-04-23T01:49:11;8.55;;;7.68;;
70014;SDS011;57358;51.094;6.760;2023-04-23T01:51:38;11.18;;;7.82;;
70014;SDS011;57358;51.094;6.760;2023-04-23T01:54:05;11.90;;;8.30;;
70014;SDS011;57358;51.094;6.760;2023-04-23T01:56:31;11.65;;;8.25;;
70014;SDS011;57358;51.094;6.760;2023-04-23T01:59:00;8.38;;;7.68;;
70014;SDS011;57358;51.094;6.760;2023-04-23T02:02:00;9.80;;;8.77;;
70014;SDS011;57358;51.094;6.760;2023-04-23T02:04:19;8.77;;;7.95;;
70014;SDS011;57358;51.094;6.760;2023-04-23T02:06:47;10.15;;;8.13;;
70014;SDS011;57358;51.094;6.760;2023-04-23T02:09:15;9.52;;;8.15;;
70014;SDS011;57358;51.094;6.760;2023-04-23T02:11:41;8.35;;;7.63;;
70014;SDS011;57358;51.094;6.760;2023-04-23T02:14:08;9.40;;;8.50;;
70014;SDS011;57358;51.094;6.760;2023-04-23T02:16:35;10.23;;;8.27;;
70014;SDS011;57358;51.094;6.760;2023-04-23T02:19:02;9.80;;;8.63;;
70014;SDS011;57358;51.094;6.760;2023-04-23T02:21:28;9.98;;;9.00;;
70014;SDS011;57358;51.094;6.760;2023-04-23T02:23:55;8.82;;;7.53;;
70014;SDS011;57358;51.094;6.760;2023-04-23T02:26:21;13.40;;;9.07;;
70014;SDS011;57358;51.094;6.760;2023-04-23T02:28:50;8.68;;;7.88;;
70014;SDS011;57358;51.094;6.760;2023-04-23T02:31:16;7.00;;;6.30;;
70014;SDS011;57358;51.094;6.760;2023-04-23T02:33:42;9.60;;;8.70;;
70014;SDS011;57358;51.094;6.760;2023-04-23T02:36:09;15.10;;;9.88;;
70014;SDS011;57358;51.094;6.760;2023-04-23T02:38:38;9.88;;;7.65;;
70014;SDS011;57358;51.094;6.760;2023-04-23T02:41:07;10.50;;;9.32;;
70014;SDS011;57358;51.094;6.760;2023-04-23T02:43:34;9.50;;;8.65;;
70014;SDS011;57358;51.094;6.760;2023-04-23T02:46:00;14.05;;;9.20;;
70014;SDS011;57358;51.094;6.760;2023-04-23T02:48:36;12.30;;;9.50;;
70014;SDS011;57358;51.094;6.760;2023-04-23T02:51:05;8.95;;;8.10;;
70014;SDS011;57358;51.094;6.760;2023-04-23T02:53:32;10.75;;;8.98;;
70014;SDS011;57358;51.094;6.760;2023-04-23T02:55:59;32.90;;;30.88;;
70014;SDS011;57358;51.094;6.760;2023-04-23T02:58:26;11.23;;;8.55;;
70014;SDS011;57358;51.094;6.760;2023-04-23T03:00:53;9.77;;;7.57;;
70014;SDS011;57358;51.094;6.760;2023-04-23T03:03:19;11.07;;;9.48;;
70014;SDS011;57358;51.094;6.760;2023-04-23T03:05:46;13.32;;;9.07;;
70014;SDS011;57358;51.094;6.760;2023-04-23T03:08:13;15.52;;;9.77;;
70014;SDS011;57358;51.094;6.760;2023-04-23T03:10:39;9.23;;;7.60;;
70014;SDS011;57358;51.094;6.760;2023-04-23T03:13:06;12.15;;;9.00;;
70014;SDS011;57358;51.094;6.760;2023-04-23T03:15:32;15.00;;;8.57;;
70014;SDS011;57358;51.094;6.760;2023-04-23T03:17:59;10.80;;;8.88;;
70014;SDS011;57358;51.094;6.760;2023-04-23T03:20:26;10.07;;;9.05;;
70014;SDS011;57358;51.094;6.760;2023-04-23T03:22:53;14.82;;;9.63;;
70014;SDS011;57358;51.094;6.760;2023-04-23T03:25:19;11.50;;;8.73;;
70014;SDS011;57358;51.094;6.760;2023-04-23T03:27:47;13.25;;;8.77;;
70014;SDS011;57358;51.094;6.760;2023-04-23T03:30:13;10.27;;;8.30;;
70014;SDS011;57358;51.094;6.760;2023-04-23T03:32:40;11.30;;;9.43;;
70014;SDS011;57358;51.094;6.760;2023-04-23T03:35:06;12.68;;;9.07;;
70014;SDS011;57358;51.094;6.760;2023-04-23T03:37:34;12.88;;;9.27;;
70014;SDS011;57358;51.094;6.760;2023-04-23T03:40:00;15.38;;;9.82;;
70014;SDS011;57358;51.094;6.760;2023-04-23T03:42:32;13.98;;;10.57;;
70014;SDS011;57358;51.094;6.760;2023-04-23T03:44:59;18.23;;;11.02;;
70014;SDS011;57358;51.094;6.760;2023-04-23T03:47:26;10.82;;;9.00;;
70014;SDS011;57358;51.094;6.760;2023-04-23T03:49:53;12.88;;;9.88;;
70014;SDS011;57358;51.094;6.760;2023-04-23T03:52:20;16.83;;;10.35;;
70014;SDS011;57358;51.094;6.760;2023-04-23T03:54:48;14.60;;;9.40;;
70014;SDS011;57358;51.094;6.760;2023-04-23T03:57:14;9.00;;;8.10;;
70014;SDS011;57358;51.094;6.760;2023-04-23T03:59:41;13.88;;;9.57;;
70014;SDS011;57358;51.094;6.760;2023-04-23T04:02:08;16.02;;;10.35;;
70014;SDS011;57358;51.094;6.760;2023-04-23T04:04:34;10.38;;;8.43;;
70014;SDS011;57358;51.094;6.760;2023-04-23T04:07:03;14.27;;;10.32;;
70014;SDS011;57358;51.094;6.760;2023-04-23T04:09:32;10.88;;;9.52;;
70014;SDS011;57358;51.094;6.760;2023-04-23T04:11:59;11.07;;;9.95;;
70014;SDS011;57358;51.094;6.760;2023-04-23T04:14:25;11.95;;;10.35;;
70014;SDS011;57358;51.094;6.760;2023-04-23T04:16:53;13.27;;;9.77;;
70014;SDS011;57358;51.094;6.760;2023-04-23T04:19:20;13.32;;;10.35;;
70014;SDS011;57358;51.094;6.760;2023-04-23T04:21:46;19.50;;;10.98;;
70014;SDS011;57358;51.094;6.760;2023-04-23T04:24:13;17.88;;;10.77;;
70014;SDS011;57358;51.094;6.760;2023-04-23T04:26:39;11.68;;;9.60;;
70014;SDS011;57358;51.094;6.760;2023-04-23T04:29:07;16.92;;;11.02;;
70014;SDS011;57358;51.094;6.760;2023-04-23T04:31:35;14.15;;;10.25;;
70014;SDS011;57358;51.094;6.760;2023-04-23T04:34:02;15.23;;;11.18;;
70014;SDS011;57358;51.094;6.760;2023-04-23T04:36:29;11.05;;;9.90;;
70014;SDS011;57358;51.094;6.760;2023-04-23T04:38:55;16.60;;;11.05;;
70014;SDS011;57358;51.094;6.760;2023-04-23T04:41:24;15.68;;;9.98;;
70014;SDS011;57358;51.094;6.760;2023-04-23T04:43:51;16.02;;;10.07;;
70014;SDS011;57358;51.094;6.760;2023-04-23T04:46:17;11.73;;;10.38;;
70014;SDS011;57358;51.094;6.760;2023-04-23T04:48:47;17.00;;;10.35;;
70014;SDS011;57358;51.094;6.760;2023-04-23T04:51:13;13.85;;;10.35;;
70014;SDS011;57358;51.094;6.760;2023-04-23T04:53:40;14.85;;;9.23;;
70014;SDS011;57358;51.094;6.760;2023-04-23T04:56:07;15.75;;;10.27;;
70014;SDS011;57358;51.094;6.760;2023-04-23T04:58:33;13.73;;;10.15;;
70014;SDS011;57358;51.094;6.760;2023-04-23T05:01:00;18.92;;;11.57;;
70014;SDS011;57358;51.094;6.760;2023-04-23T05:03:26;16.10;;;10.48;;
70014;SDS011;57358;51.094;6.760;2023-04-23T05:05:53;18.27;;;11.38;;
70014;SDS011;57358;51.094;6.760;2023-04-23T05:08:21;10.15;;;9.02;;
70014;SDS011;57358;51.094;6.760;2023-04-23T05:10:47;10.82;;;9.73;;
70014;SDS011;57358;51.094;6.760;2023-04-23T05:13:15;16.70;;;10.35;;
70014;SDS011;57358;51.094;6.760;2023-04-23T05:15:42;10.25;;;9.23;;
70014;SDS011;57358;51.094;6.760;2023-04-23T05:18:09;12.25;;;9.70;;
70014;SDS011;57358;51.094;6.760;2023-04-23T05:20:36;15.65;;;9.88;;
70014;SDS011;57358;51.094;6.760;2023-04-23T05:23:03;15.10;;;10.57;;
70014;SDS011;57358;51.094;6.760;2023-04-23T05:25:29;9.40;;;8.48;;
70014;SDS011;57358;51.094;6.760;2023-04-23T05:27:57;17.73;;;12.15;;
70014;SDS011;57358;51.094;6.760;2023-04-23T05:30:23;15.00;;;11.98;;
70014;SDS011;57358;51.094;6.760;2023-04-23T05:32:50;13.13;;;9.20;;
70014;SDS011;57358;51.094;6.760;2023-04-23T05:35:16;10.98;;;9.38;;
70014;SDS011;57358;51.094;6.760;2023-04-23T05:37:43;14.00;;;10.25;;
70014;SDS011;57358;51.094;6.760;2023-04-23T05:40:09;12.60;;;9.52;;
70014;SDS011;57358;51.094;6.760;2023-04-23T05:42:36;9.93;;;8.50;;
70014;SDS011;57358;51.094;6.760;2023-04-23T05:45:02;10.82;;;9.65;;
70014;SDS011;57358;51.094;6.760;2023-04-23T05:47:33;12.48;;;10.32;;
70014;SDS011;57358;51.094;6.760;2023-04-23T05:49:59;12.52;;;10.68;;
70014;SDS011;57358;51.094;6.760;2023-04-23T05:52:26;8.85;;;7.97;;
70014;SDS011;57358;51.094;6.760;2023-04-23T05:54:56;13.70;;;9.43;;
70014;SDS011;57358;51.094;6.760;2023-04-23T05:57:22;13.82;;;9.25;;
70014;SDS011;57358;51.094;6.760;2023-04-23T05:59:49;13.63;;;10.00;;
70014;SDS011;57358;51.094;6.760;2023-04-23T06:02:15;9.57;;;8.48;;
70014;SDS011;57358;51.094;6.760;2023-04-23T06:04:42;10.13;;;8.60;;
70014;SDS011;57358;51.094;6.760;2023-04-23T06:07:12;11.38;;;10.10;;
70014;SDS011;57358;51.094;6.760;2023-04-23T06:09:40;9.98;;;8.98;;
70014;SDS011;57358;51.094;6.760;2023-04-23T06:12:06;17.65;;;10.20;;
70014;SDS011;57358;51.094;6.760;2023-04-23T06:14:33;13.27;;;9.55;;
70014;SDS011;57358;51.094;6.760;2023-04-23T06:16:59;9.63;;;8.68;;
70014;SDS011;57358;51.094;6.760;2023-04-23T06:19:25;12.32;;;9.63;;
70014;SDS011;57358;51.094;6.760;2023-04-23T06:21:52;10.18;;;8.73;;
70014;SDS011;57358;51.094;6.760;2023-04-23T06:24:19;9.95;;;8.82;;
70014;SDS011;57358;51.094;6.760;2023-04-23T06:26:45;9.65;;;8.63;;
70014;SDS011;57358;51.094;6.760;2023-04-23T06:29:12;12.25;;;9.13;;
70014;SDS011;57358;51.094;6.760;2023-04-23T06:31:38;10.52;;;7.97;;
70014;SDS011;57358;51.094;6.760;2023-04-23T06:34:06;9.88;;;9.00;;
70014;SDS011;57358;51.094;6.760;2023-04-23T06:36:33;9.07;;;7.93;;
70014;SDS011;57358;51.094;6.760;2023-04-23T06:39:00;9.77;;;8.77;;
70014;SDS011;57358;51.094;6.760;2023-04-23T06:41:26;9.63;;;8.68;;
70014;SDS011;57358;51.094;6.760;2023-04-23T06:43:53;13.63;;;9.00;;
70014;SDS011;57358;51.094;6.760;2023-04-23T06:46:19;10.18;;;8.25;;
70014;SDS011;57358;51.094;6.760;2023-04-23T06:48:45;10.07;;;9.10;;
70014;SDS011;57358;51.094;6.760;2023-04-23T06:51:12;9.85;;;8.40;;
70014;SDS011;57358;51.094;6.760;2023-04-23T06:53:39;9.38;;;8.50;;
70014;SDS011;57358;51.094;6.760;2023-04-23T06:56:05;11.05;;;8.45;;
70014;SDS011;57358;51.094;6.760;2023-04-23T06:58:32;9.48;;;8.40;;
70014;SDS011;57358;51.094;6.760;2023-04-23T07:00:59;8.73;;;7.78;;
70014;SDS011;57358;51.094;6.760;2023-04-23T07:03:26;8.93;;;7.88;;
70014;SDS011;57358;51.094;6.760;2023-04-23T07:05:53;10.68;;;8.13;;
70014;SDS011;57358;51.094;6.760;2023-04-23T07:08:19;10.77;;;7.85;;
70014;SDS011;57358;51.094;6.760;2023-04-23T07:10:46;8.70;;;7.82;;
70014;SDS011;57358;51.094;6.760;2023-04-23T07:13:13;8.93;;;8.23;;
70014;SDS011;57358;51.094;6.760;2023-04-23T07:15:40;8.70;;;7.97;;
70014;SDS011;57358;51.094;6.760;2023-04-23T07:18:07;8.05;;;7.35;;
70014;SDS011;57358;51.094;6.760;2023-04-23T07:20:34;13.20;;;7.63;;
70014;SDS011;57358;51.094;6.760;2023-04-23T07:23:01;8.63;;;7.82;;
70014;SDS011;57358;51.094;6.760;2023-04-23T07:25:29;7.97;;;7.30;;
70014;SDS011;57358;51.094;6.760;2023-04-23T07:27:56;7.43;;;6.53;;
70014;SDS011;57358;51.094;6.760;2023-04-23T07:30:23;8.40;;;7.60;;
70014;SDS011;57358;51.094;6.760;2023-04-23T07:32:51;9.45;;;7.95;;
70014;SDS011;57358;51.094;6.760;2023-04-23T07:35:18;6.97;;;6.45;;
70014;SDS011;57358;51.094;6.760;2023-04-23T07:37:44;8.05;;;7.35;;
70014;SDS011;57358;51.094;6.760;2023-04-23T07:40:11;7.88;;;7.32;;
70014;SDS011;57358;51.094;6.760;2023-04-23T07:42:37;8.15;;;7.13;;
70014;SDS011;57358;51.094;6.760;2023-04-23T07:45:04;8.15;;;7.40;;
70014;SDS011;57358;51.094;6.760;2023-04-23T07:47:31;7.93;;;6.55;;
70014;SDS011;57358;51.094;6.760;2023-04-23T07:49:58;7.65;;;6.85;;
70014;SDS011;57358;51.094;6.760;2023-04-23T07:52:24;6.88;;;6.38;;
70014;SDS011;57358;51.094;6.760;2023-04-23T07:54:50;6.93;;;6.32;;
70014;SDS011;57358;51.094;6.760;2023-04-23T07:57:17;6.93;;;6.43;;
70014;SDS011;57358;51.094;6.760;2023-04-23T07:59:43;7.18;;;6.68;;
70014;SDS011;57358;51.094;6.760;2023-04-23T08:02:10;7.28;;;6.75;;
70014;SDS011;57358;51.094;6.760;2023-04-23T08:04:36;7.57;;;7.07;;
70014;SDS011;57358;51.094;6.760;2023-04-23T08:07:03;7.03;;;6.53;;
70014;SDS011;57358;51.094;6.760;2023-04-23T08:09:29;6.68;;;6.28;;
70014;SDS011;57358;51.094;6.760;2023-04-23T08:11:56;6.63;;;6.22;;
70014;SDS011;57358;51.094;6.760;2023-04-23T08:14:22;6.80;;;6.30;;
70014;SDS011;57358;51.094;6.760;2023-04-23T08:16:49;7.32;;;6.55;;
70014;SDS011;57358;51.094;6.760;2023-04-23T08:19:15;7.60;;;6.78;;
70014;SDS011;57358;51.094;6.760;2023-04-23T08:21:42;6.40;;;5.88;;
70014;SDS011;57358;51.094;6.760;2023-04-23T08:24:08;6.68;;;6.22;;
70014;SDS011;57358;51.094;6.760;2023-04-23T08:26:35;6.45;;;5.90;;
70014;SDS011;57358;51.094;6.760;2023-04-23T08:29:01;13.55;;;6.47;;
70014;SDS011;57358;51.094;6.760;2023-04-23T08:31:28;6.10;;;5.72;;
70014;SDS011;57358;51.094;6.760;2023-04-23T08:33:57;7.15;;;5.85;;
70014;SDS011;57358;51.094;6.760;2023-04-23T08:36:24;6.40;;;6.00;;
70014;SDS011;57358;51.094;6.760;2023-04-23T08:38:51;6.45;;;6.05;;
70014;SDS011;57358;51.094;6.760;2023-04-23T08:41:18;6.57;;;6.10;;
70014;SDS011;57358;51.094;6.760;2023-04-23T08:43:58;7.40;;;6.63;;
70014;SDS011;57358;51.094;6.760;2023-04-23T08:46:26;7.20;;;6.70;;
70014;SDS011;57358;51.094;6.760;2023-04-23T08:48:58;8.10;;;6.38;;
70014;SDS011;57358;51.094;6.760;2023-04-23T08:51:25;6.68;;;6.28;;
70014;SDS011;57358;51.094;6.760;2023-04-23T08:53:58;6.65;;;6.15;;
70014;SDS011;57358;51.094;6.760;2023-04-23T08:56:31;6.50;;;6.10;;
70014;SDS011;57358;51.094;6.760;2023-04-23T08:58:58;6.50;;;6.10;;
70014;SDS011;57358;51.094;6.760;2023-04-23T09:01:24;6.10;;;5.70;;
70014;SDS011;57358;51.094;6.760;2023-04-23T09:03:51;6.60;;;6.20;;
70014;SDS011;57358;51.094;6.760;2023-04-23T09:06:18;6.57;;;6.18;;
70014;SDS011;57358;51.094;6.760;2023-04-23T09:08:46;7.25;;;6.55;;
70014;SDS011;57358;51.094;6.760;2023-04-23T09:11:13;6.40;;;6.00;;
70014;SDS011;57358;51.094;6.760;2023-04-23T09:13:40;6.35;;;5.95;;
70014;SDS011;57358;51.094;6.760;2023-04-23T09:16:07;7.95;;;6.00;;
70014;SDS011;57358;51.094;6.760;2023-04-23T09:18:33;8.15;;;6.57;;
70014;SDS011;57358;51.094;6.760;2023-04-23T09:21:00;6.13;;;5.82;;
70014;SDS011;57358;51.094;6.760;2023-04-23T09:23:29;6.25;;;5.95;;
70014;SDS011;57358;51.094;6.760;2023-04-23T09:25:57;6.38;;;5.97;;
70014;SDS011;57358;51.094;6.760;2023-04-23T09:28:33;6.55;;;5.97;;
70014;SDS011;57358;51.094;6.760;2023-04-23T09:31:01;6.25;;;5.88;;
70014;SDS011;57358;51.094;6.760;2023-04-23T09:33:33;6.30;;;5.78;;
70014;SDS011;57358;51.094;6.760;2023-04-23T09:36:09;5.95;;;5.65;;
70014;SDS011;57358;51.094;6.760;2023-04-23T09:38:42;5.88;;;5.57;;
70014;SDS011;57358;51.094;6.760;2023-04-23T09:41:21;6.47;;;5.88;;
70014;SDS011;57358;51.094;6.760;2023-04-23T09:43:51;6.05;;;5.65;;
70014;SDS011;57358;51.094;6.760;2023-04-23T09:46:30;6.15;;;5.75;;
70014;SDS011;57358;51.094;6.760;2023-04-23T09:48:57;6.03;;;5.63;;
70014;SDS011;57358;51.094;6.760;2023-04-23T09:51:26;5.68;;;5.38;;
70014;SDS011;57358;51.094;6.760;2023-04-23T09:53:53;6.32;;;5.80;;
70014;SDS011;57358;51.094;6.760;2023-04-23T09:56:19;6.38;;;5.80;;
70014;SDS011;57358;51.094;6.760;2023-04-23T09:58:46;6.78;;;5.63;;
70014;SDS011;57358;51.094;6.760;2023-04-23T10:01:13;6.47;;;6.03;;
70014;SDS011;57358;51.094;6.760;2023-04-23T10:03:43;6.18;;;5.68;;
70014;SDS011;57358;51.094;6.760;2023-04-23T10:06:13;6.05;;;5.70;;
70014;SDS011;57358;51.094;6.760;2023-04-23T10:09:02;6.50;;;6.15;;
70014;SDS011;57358;51.094;6.760;2023-04-23T10:11:29;6.10;;;5.60;;
70014;SDS011;57358;51.094;6.760;2023-04-23T10:13:55;5.93;;;5.63;;
70014;SDS011;57358;51.094;6.760;2023-04-23T10:16:22;5.90;;;5.50;;
70014;SDS011;57358;51.094;6.760;2023-04-23T10:18:58;6.30;;;5.65;;
70014;SDS011;57358;51.094;6.760;2023-04-23T10:21:26;5.97;;;5.50;;
70014;SDS011;57358;51.094;6.760;2023-04-23T10:24:08;5.90;;;5.60;;
70014;SDS011;57358;51.094;6.760;2023-04-23T10:26:37;6.03;;;5.65;;
70014;SDS011;57358;51.094;6.760;2023-04-23T10:29:05;6.53;;;5.95;;
70014;SDS011;57358;51.094;6.760;2023-04-23T10:31:39;5.80;;;5.50;;
70014;SDS011;57358;51.094;6.760;2023-04-23T10:34:07;6.43;;;6.00;;
70014;SDS011;57358;51.094;6.760;2023-04-23T10:36:38;5.90;;;5.50;;
70014;SDS011;57358;51.094;6.760;2023-04-23T10:39:05;6.00;;;5.70;;
70014;SDS011;57358;51.094;6.760;2023-04-23T10:41:35;5.68;;;5.32;;
70014;SDS011;57358;51.094;6.760;2023-04-23T10:44:04;5.90;;;5.57;;
70014;SDS011;57358;51.094;6.760;2023-04-23T10:46:32;6.70;;;6.07;;
70014;SDS011;57358;51.094;6.760;2023-04-23T10:49:04;5.88;;;5.50;;
70014;SDS011;57358;51.094;6.760;2023-04-23T10:51:35;6.30;;;5.90;;
70014;SDS011;57358;51.094;6.760;2023-04-23T10:54:06;5.85;;;5.55;;
70014;SDS011;57358;51.094;6.760;2023-04-23T10:56:33;6.22;;;5.93;;
70014;SDS011;57358;51.094;6.760;2023-04-23T10:58:59;5.57;;;5.30;;
70014;SDS011;57358;51.094;6.760;2023-04-23T11:01:27;5.68;;;5.38;;
70014;SDS011;57358;51.094;6.760;2023-04-23T11:03:55;5.90;;;5.50;;
70014;SDS011;57358;51.094;6.760;2023-04-23T11:12:04;5.80;;;5.50;;
70014;SDS011;57358;51.094;6.760;2023-04-23T11:14:40;5.90;;;5.50;;
70014;SDS011;57358;51.094;6.760;2023-04-23T11:17:07;5.90;;;5.50;;
70014;SDS011;57358;51.094;6.760;2023-04-23T11:19:37;6.10;;;5.60;;
70014;SDS011;57358;51.094;6.760;2023-04-23T11:22:11;5.93;;;5.63;;
70014;SDS011;57358;51.094;6.760;2023-04-23T11:24:39;5.80;;;5.50;;
70014;SDS011;57358;51.094;6.760;2023-04-23T11:27:09;5.60;;;5.30;;
70014;SDS011;57358;51.094;6.760;2023-04-23T11:29:38;6.10;;;5.60;;
70014;SDS011;57358;51.094;6.760;2023-04-23T11:32:06;5.70;;;5.40;;
70014;SDS011;57358;51.094;6.760;2023-04-23T11:34:36;6.13;;;5.60;;
70014;SDS011;57358;51.094;6.760;2023-04-23T11:37:08;6.28;;;5.88;;
70014;SDS011;57358;51.094;6.760;2023-04-23T11:39:36;6.30;;;5.80;;
70014;SDS011;57358;51.094;6.760;2023-04-23T11:42:08;6.10;;;5.55;;
70014;SDS011;57358;51.094;6.760;2023-04-23T11:44:37;5.80;;;5.50;;
70014;SDS011;57358;51.094;6.760;2023-04-23T11:47:06;5.63;;;5.32;;
70014;SDS011;57358;51.094;6.760;2023-04-23T11:49:41;5.88;;;5.57;;
70014;SDS011;57358;51.094;6.760;2023-04-23T11:52:10;6.70;;;6.10;;
70014;SDS011;57358;51.094;6.760;2023-04-23T11:54:38;5.80;;;5.50;;
70014;SDS011;57358;51.094;6.760;2023-04-23T11:57:06;5.88;;;5.57;;
70014;SDS011;57358;51.094;6.760;2023-04-23T11:59:33;5.80;;;5.50;;
70014;SDS011;57358;51.094;6.760;2023-04-23T12:01:59;6.20;;;5.80;;
70014;SDS011;57358;51.094;6.760;2023-04-23T12:04:27;5.90;;;5.55;;
70014;SDS011;57358;51.094;6.760;2023-04-23T12:06:55;6.05;;;5.65;;
70014;SDS011;57358;51.094;6.760;2023-04-23T12:09:23;5.88;;;5.57;;
70014;SDS011;57358;51.094;6.760;2023-04-23T12:11:52;6.30;;;5.90;;
70014;SDS011;57358;51.094;6.760;2023-04-23T12:14:24;6.20;;;5.70;;
70014;SDS011;57358;51.094;6.760;2023-04-23T12:16:54;5.72;;;5.43;;
70014;SDS011;57358;51.094;6.760;2023-04-23T12:19:25;5.95;;;5.55;;
70014;SDS011;57358;51.094;6.760;2023-04-23T12:21:59;6.10;;;5.70;;
70014;SDS011;57358;51.094;6.760;2023-04-23T12:24:27;6.07;;;5.78;;
70014;SDS011;57358;51.094;6.760;2023-04-23T12:26:57;5.97;;;5.68;;
70014;SDS011;57358;51.094;6.760;2023-04-23T12:29:25;5.68;;;5.38;;
70014;SDS011;57358;51.094;6.760;2023-04-23T12:31:56;5.93;;;5.63;;
70014;SDS011;57358;51.094;6.760;2023-04-23T12:34:24;5.80;;;5.50;;
70014;SDS011;57358;51.094;6.760;2023-04-23T12:36:51;5.80;;;5.50;;
70014;SDS011;57358;51.094;6.760;2023-04-23T12:41:59;5.90;;;5.57;;
70014;SDS011;57358;51.094;6.760;2023-04-23T12:44:36;6.18;;;5.88;;
70014;SDS011;57358;51.094;6.760;2023-04-23T12:47:05;5.72;;;5.43;;
70014;SDS011;57358;51.094;6.760;2023-04-23T12:49:42;5.57;;;5.38;;
70014;SDS011;57358;51.094;6.760;2023-04-23T12:52:10;6.53;;;6.22;;
70014;SDS011;57358;51.094;6.760;2023-04-23T12:54:39;5.93;;;5.63;;
70014;SDS011;57358;51.094;6.760;2023-04-23T12:57:06;5.90;;;5.60;;
70014;SDS011;57358;51.094;6.760;2023-04-23T12:59:36;5.90;;;5.60;;
70014;SDS011;57358;51.094;6.760;2023-04-23T13:02:02;5.88;;;5.57;;
70014;SDS011;57358;51.094;6.760;2023-04-23T13:04:30;5.85;;;5.55;;
70014;SDS011;57358;51.094;6.760;2023-04-23T13:06:58;5.90;;;5.60;;
70014;SDS011;57358;51.094;6.760;2023-04-23T13:09:26;6.00;;;5.60;;
70014;SDS011;57358;51.094;6.760;2023-04-23T13:11:53;5.88;;;5.40;;
70014;SDS011;57358;51.094;6.760;2023-04-23T13:14:20;5.80;;;5.50;;
70014;SDS011;57358;51.094;6.760;2023-04-23T13:16:46;5.90;;;5.60;;
70014;SDS011;57358;51.094;6.760;2023-04-23T13:19:14;6.18;;;5.68;;
70014;SDS011;57358;51.094;6.760;2023-04-23T13:21:42;5.80;;;5.50;;
70014;SDS011;57358;51.094;6.760;2023-04-23T13:24:09;6.18;;;5.88;;
70014;SDS011;57358;51.094;6.760;2023-04-23T13:26:35;5.95;;;5.65;;
70014;SDS011;57358;51.094;6.760;2023-04-23T13:29:02;6.03;;;5.60;;
70014;SDS011;57358;51.094;6.760;2023-04-23T13:31:29;5.90;;;5.60;;
70014;SDS011;57358;51.094;6.760;2023-04-23T13:33:56;6.00;;;5.70;;
70014;SDS011;57358;51.094;6.760;2023-04-23T13:36:23;5.70;;;5.40;;
70014;SDS011;57358;51.094;6.760;2023-04-23T13:38:49;6.10;;;5.80;;
70014;SDS011;57358;51.094;6.760;2023-04-23T13:41:16;6.00;;;5.60;;
70014;SDS011;57358;51.094;6.760;2023-04-23T13:43:42;5.65;;;5.35;;
70014;SDS011;57358;51.094;6.760;2023-04-23T13:46:08;6.00;;;5.60;;
70014;SDS011;57358;51.094;6.760;2023-04-23T13:48:35;5.70;;;5.40;;
70014;SDS011;57358;51.094;6.760;2023-04-23T13:51:01;6.18;;;5.50;;
70014;SDS011;57358;51.094;6.760;2023-04-23T13:53:28;5.57;;;5.32;;
70014;SDS011;57358;51.094;6.760;2023-04-23T13:55:55;5.82;;;5.53;;
70014;SDS011;57358;51.094;6.760;2023-04-23T13:58:21;5.82;;;5.53;;
70014;SDS011;57358;51.094;6.760;2023-04-23T14:00:51;10.00;;;5.60;;
70014;SDS011;57358;51.094;6.760;2023-04-23T14:03:18;5.70;;;5.40;;
70014;SDS011;57358;51.094;6.760;2023-04-23T14:05:45;6.07;;;5.78;;
70014;SDS011;57358;51.094;6.760;2023-04-23T14:08:11;5.88;;;5.57;;
70014;SDS011;57358;51.094;6.760;2023-04-23T14:10:40;5.68;;;5.38;;
70014;SDS011;57358;51.094;6.760;2023-04-23T14:13:08;6.30;;;5.90;;
70014;SDS011;57358;51.094;6.760;2023-04-23T14:15:35;5.95;;;5.50;;
70014;SDS011;57358;51.094;6.760;2023-04-23T14:18:02;6.10;;;5.70;;
70014;SDS011;57358;51.094;6.760;2023-04-23T14:20:28;6.20;;;5.90;;
70014;SDS011;57358;51.094;6.760;2023-04-23T14:22:56;5.75;;;5.45;;
70014;SDS011;57358;51.094;6.760;2023-04-23T14:25:33;5.80;;;5.50;;
70014;SDS011;57358;51.094;6.760;2023-04-23T14:31:04;5.57;;;5.30;;
70014;SDS011;57358;51.094;6.760;2023-04-23T14:33:30;5.15;;;4.95;;
70014;SDS011;57358;51.094;6.760;2023-04-23T14:35:57;6.00;;;5.70;;
70014;SDS011;57358;51.094;6.760;2023-04-23T14:38:23;5.47;;;5.18;;
70014;SDS011;57358;51.094;6.760;2023-04-23T14:40:52;5.30;;;5.10;;
70014;SDS011;57358;51.094;6.760;2023-04-23T14:43:18;6.28;;;5.78;;
70014;SDS011;57358;51.094;6.760;2023-04-23T14:45:45;5.47;;;5.28;;
70014;SDS011;57358;51.094;6.760;2023-04-23T14:48:12;6.20;;;5.90;;
70014;SDS011;57358;51.094;6.760;2023-04-23T14:50:38;5.90;;;5.60;;
70014;SDS011;57358;51.094;6.760;2023-04-23T14:53:05;5.22;;;5.03;;
70014;SDS011;57358;51.094;6.760;2023-04-23T14:55:32;6.35;;;5.50;;
70014;SDS011;57358;51.094;6.760;2023-04-23T14:57:59;5.90;;;5.60;;